Time;durP1;ratioP1;P1;durP2;ratioP2;P2;SDS_P1;SDS_P2;PMS_P1;PMS_P2;Temp;Humidity;BMP_temperature;BMP_pressure;BME280_temperature;BME280_humidity;BME280_pressure;Samples;Min_cycle;Max_cycle;Signal;HPM_P1;HPM_P2
2022/04/13 00:00:47;;;;;;;20.48;10.68;;;14.70;99.90;;;;;;5069874;28;20036;-56
2022/04/13 00:03:13;;;;;;;22.88;11.20;;;14.60;99.90;;;;;;5069947;28;20020;-56
2022/04/13 00:05:38;;;;;;;23.35;11.77;;;14.60;99.90;;;;;;5069719;28;20559;-56
2022/04/13 00:08:07;;;;;;;21.20;11.50;;;14.80;99.90;;;;;;5069495;28;20029;-56
2022/04/13 00:10:36;;;;;;;20.90;12.90;;;14.80;99.90;;;;;;5068086;28;20050;-56
2022/04/13 00:13:03;;;;;;;25.02;11.70;;;14.70;99.90;;;;;;5069762;28;20556;-56
2022/04/13 00:15:28;;;;;;;19.90;11.82;;;14.50;99.90;;;;;;5069837;28;20029;-56
2022/04/13 00:17:54;;;;;;;23.23;11.32;;;14.10;99.90;;;;;;5069348;28;20444;-56
2022/04/13 00:20:22;;;;;;;26.23;12.35;;;13.90;99.90;;;;;;5069403;28;20473;-56
2022/04/13 00:22:47;;;;;;;24.15;12.20;;;13.70;99.90;;;;;;5069435;28;20102;-57
2022/04/13 00:25:13;;;;;;;19.92;11.63;;;13.60;99.90;;;;;;5072416;28;20040;-57
2022/04/13 00:27:39;;;;;;;23.80;12.73;;;13.70;99.90;;;;;;5073586;28;20032;-57
2022/04/13 00:30:05;;;;;;;27.00;13.18;;;13.50;99.90;;;;;;5073429;28;20802;-57
2022/04/13 00:32:33;;;;;;;24.85;12.93;;;13.50;99.90;;;;;;5073642;28;20037;-57
2022/04/13 00:35:02;;;;;;;22.88;12.68;;;13.40;99.90;;;;;;5073527;28;20028;-57
2022/04/13 00:37:28;;;;;;;23.67;13.20;;;13.40;99.90;;;;;;5073420;28;20024;-57
2022/04/13 00:39:54;;;;;;;23.90;12.98;;;13.50;99.90;;;;;;5073317;28;20025;-57
2022/04/13 00:42:19;;;;;;;21.95;12.60;;;13.50;99.90;;;;;;5073294;28;20355;-57
2022/04/13 00:44:45;;;;;;;28.80;13.77;;;13.50;99.90;;;;;;5073025;28;20067;-57
2022/04/13 00:47:12;;;;;;;23.63;12.85;;;13.40;99.90;;;;;;5072910;28;20031;-57
2022/04/13 00:49:38;;;;;;;26.92;14.07;;;13.40;99.90;;;;;;5071621;28;20409;-57
2022/04/13 00:52:05;;;;;;;26.73;13.38;;;13.30;99.90;;;;;;5073303;28;20029;-57
2022/04/13 00:54:32;;;;;;;28.40;14.55;;;13.40;99.90;;;;;;5071628;28;20024;-57
2022/04/13 00:56:59;;;;;;;24.00;14.80;;;13.40;99.90;;;;;;5072843;28;20059;-57
2022/04/13 00:59:26;;;;;;;27.65;15.07;;;13.50;99.90;;;;;;5072779;28;20307;-57
2022/04/13 01:01:53;;;;;;;29.40;16.02;;;13.50;99.90;;;;;;5072747;28;20059;-57
2022/04/13 01:04:20;;;;;;;28.63;16.73;;;13.40;99.90;;;;;;5072951;28;20504;-57
2022/04/13 01:06:45;;;;;;;25.05;14.82;;;13.40;99.90;;;;;;5072691;28;20040;-57
2022/04/13 01:09:13;;;;;;;21.38;13.73;;;13.30;99.90;;;;;;5073016;28;20435;-57
2022/04/13 01:11:39;;;;;;;22.08;14.20;;;13.10;99.90;;;;;;5071299;28;20021;-57
2022/04/13 01:14:05;;;;;;;26.08;14.65;;;13.10;99.90;;;;;;5073008;28;20116;-57
2022/04/13 01:16:32;;;;;;;23.63;15.07;;;13.10;99.90;;;;;;5072886;28;20107;-57
2022/04/13 01:18:57;;;;;;;23.98;15.25;;;13.20;99.90;;;;;;5072816;28;20032;-57
2022/04/13 01:21:45;;;;;;;24.02;14.88;;;13.20;99.90;;;;;;5072381;28;20028;-57
2022/04/13 01:24:12;;;;;;;21.55;13.90;;;13.20;99.90;;;;;;5072688;28;20025;-57
2022/04/13 01:26:38;;;;;;;23.63;13.90;;;13.20;99.90;;;;;;5072438;28;20040;-57
2022/04/13 01:29:04;;;;;;;23.50;13.65;;;13.30;99.90;;;;;;5072353;28;20032;-57
2022/04/13 01:31:31;;;;;;;22.05;13.50;;;13.30;99.90;;;;;;5072175;28;20059;-57
2022/04/13 01:33:59;;;;;;;23.42;14.45;;;13.20;99.90;;;;;;5072403;28;20032;-57
2022/04/13 01:36:28;;;;;;;20.55;15.02;;;13.20;99.90;;;;;;5071792;28;20086;-57
2022/04/13 01:38:53;;;;;;;22.85;13.88;;;13.20;99.90;;;;;;5072307;28;20039;-57
2022/04/13 01:41:19;;;;;;;22.60;13.10;;;13.20;99.90;;;;;;5072480;28;20024;-57
2022/04/13 01:43:45;;;;;;;23.25;15.13;;;13.30;99.90;;;;;;5072715;28;20551;-57
2022/04/13 01:46:11;;;;;;;27.88;14.70;;;13.30;99.90;;;;;;5072340;28;20431;-57
2022/04/13 01:48:36;;;;;;;19.67;14.40;;;13.40;99.90;;;;;;5072518;28;20021;-57
2022/04/13 01:51:02;;;;;;;22.23;14.35;;;13.50;99.90;;;;;;5072020;28;20033;-57
2022/04/13 01:53:28;;;;;;;20.13;13.35;;;13.50;99.90;;;;;;5072397;28;20017;-57
2022/04/13 01:55:57;;;;;;;21.75;14.45;;;13.50;99.90;;;;;;5071784;28;20474;-57
2022/04/13 01:58:23;;;;;;;22.20;13.68;;;13.60;99.90;;;;;;5071645;28;20032;-57
2022/04/13 02:00:56;;;;;;;26.63;13.82;;;13.60;99.90;;;;;;5071907;28;20025;-57
2022/04/13 02:03:26;;;;;;;22.13;14.55;;;13.50;99.90;;;;;;5071809;28;20478;-57
2022/04/13 02:05:52;;;;;;;24.15;14.80;;;13.50;99.90;;;;;;5071587;28;20025;-57
2022/04/13 02:08:22;;;;;;;20.55;13.50;;;13.60;99.90;;;;;;5070215;28;20516;-57
2022/04/13 02:10:49;;;;;;;23.70;14.02;;;13.70;99.90;;;;;;5071671;28;20065;-55
2022/04/13 02:13:15;;;;;;;20.05;13.43;;;13.70;99.90;;;;;;5071726;28;20025;-56
2022/04/13 02:15:41;;;;;;;20.65;12.20;;;13.40;99.90;;;;;;5072048;28;20028;-56
2022/04/13 02:18:07;;;;;;;20.02;12.75;;;13.40;99.90;;;;;;5071188;28;20506;-56
2022/04/13 02:20:33;;;;;;;20.38;12.38;;;13.40;99.90;;;;;;5071428;28;20025;-57
2022/04/13 02:23:01;;;;;;;21.40;12.82;;;13.40;99.90;;;;;;5071653;28;20044;-57
2022/04/13 02:25:27;;;;;;;21.10;12.30;;;13.30;99.90;;;;;;5071378;28;20017;-57
2022/04/13 02:27:53;;;;;;;21.65;12.73;;;13.20;99.90;;;;;;5071226;28;20047;-57
2022/04/13 02:30:18;;;;;;;22.02;13.38;;;13.20;99.90;;;;;;5071061;28;20028;-57
2022/04/13 02:32:44;;;;;;;22.58;14.05;;;13.30;99.90;;;;;;5071500;28;20405;-57
2022/04/13 02:35:11;;;;;;;25.90;15.25;;;13.40;99.90;;;;;;5071488;28;20020;-57
2022/04/13 02:37:38;;;;;;;34.45;19.90;;;13.50;99.90;;;;;;5071178;28;20021;-57
2022/04/13 02:40:06;;;;;;;33.78;19.80;;;13.50;99.90;;;;;;5070938;28;20020;-57
2022/04/13 02:42:33;;;;;;;21.80;12.75;;;13.60;99.90;;;;;;5070975;28;20032;-57
2022/04/13 02:44:59;;;;;;;20.80;12.10;;;13.70;99.90;;;;;;5069434;28;20025;-57
2022/04/13 02:47:25;;;;;;;16.98;11.32;;;13.70;99.90;;;;;;5069731;28;20020;-57
2022/04/13 02:49:50;;;;;;;22.20;11.93;;;13.90;99.90;;;;;;5070837;28;20024;-57
2022/04/13 02:52:16;;;;;;;26.98;11.35;;;13.80;99.90;;;;;;5071006;28;20033;-57
2022/04/13 02:54:41;;;;;;;21.80;10.48;;;13.70;99.90;;;;;;5070819;28;20112;-57
2022/04/13 02:57:07;;;;;;;17.95;11.05;;;13.60;99.90;;;;;;5070778;28;20032;-57
2022/04/13 02:59:33;;;;;;;19.70;11.38;;;13.60;99.90;;;;;;5070543;28;20020;-57
2022/04/13 03:01:58;;;;;;;18.08;11.13;;;13.60;99.90;;;;;;5071022;28;20020;-57
2022/04/13 03:04:24;;;;;;;23.80;10.95;;;13.70;99.90;;;;;;5069426;28;20077;-57
2022/04/13 03:06:50;;;;;;;29.70;10.30;;;13.60;99.90;;;;;;5070509;28;20017;-57
2022/04/13 03:09:15;;;;;;;21.35;10.90;;;13.70;99.90;;;;;;5070217;28;20021;-57
2022/04/13 03:11:41;;;;;;;16.80;9.95;;;13.60;99.90;;;;;;5070329;28;20062;-57
2022/04/13 03:14:07;;;;;;;21.25;10.32;;;13.70;99.90;;;;;;5070652;28;20445;-57
2022/04/13 03:16:32;;;;;;;19.75;10.10;;;13.70;99.90;;;;;;5070108;28;20377;-57
2022/04/13 03:18:58;;;;;;;20.88;10.60;;;13.60;99.90;;;;;;5070089;28;20091;-57
2022/04/13 03:21:24;;;;;;;20.65;9.75;;;13.50;99.90;;;;;;5069047;28;20177;-57
2022/04/13 03:23:50;;;;;;;17.38;10.18;;;13.40;99.90;;;;;;5070154;28;20045;-57
2022/04/13 03:26:16;;;;;;;17.60;10.00;;;13.30;99.90;;;;;;5070111;28;20044;-57
2022/04/13 03:28:42;;;;;;;22.92;10.68;;;13.20;99.90;;;;;;5069963;28;20482;-57
2022/04/13 03:31:08;;;;;;;17.83;11.10;;;13.10;99.90;;;;;;5070162;28;20028;-57
2022/04/13 03:33:33;;;;;;;20.42;9.65;;;13.00;99.90;;;;;;5070321;28;20379;-57
2022/04/13 03:35:59;;;;;;;19.17;10.18;;;13.00;99.90;;;;;;5069930;28;20060;-57
2022/04/13 03:38:24;;;;;;;23.92;11.95;;;12.90;99.90;;;;;;5069863;28;20078;-57
2022/04/13 03:40:50;;;;;;;25.77;16.38;;;12.80;99.90;;;;;;5069887;28;20405;-57
2022/04/13 03:43:16;;;;;;;30.63;15.93;;;12.70;99.90;;;;;;5070095;28;20486;-57
2022/04/13 03:45:41;;;;;;;22.70;14.05;;;12.70;99.90;;;;;;5069746;28;20100;-57
2022/04/13 03:48:07;;;;;;;26.90;15.10;;;12.60;99.90;;;;;;5069665;28;20028;-57
2022/04/13 03:50:33;;;;;;;27.10;16.23;;;12.60;99.90;;;;;;5069774;28;20039;-57
2022/04/13 03:52:58;;;;;;;33.38;20.75;;;12.70;99.90;;;;;;5070179;28;20035;-57
2022/04/13 03:55:24;;;;;;;34.13;20.50;;;12.50;99.90;;;;;;5069744;28;20029;-57
2022/04/13 03:57:50;;;;;;;25.83;17.27;;;12.30;99.90;;;;;;5069662;28;20449;-57
2022/04/13 04:00:17;;;;;;;21.20;14.02;;;12.10;99.90;;;;;;5068423;28;20025;-56
2022/04/13 04:02:43;;;;;;;24.00;15.65;;;12.00;99.90;;;;;;5069936;28;20028;-56
2022/04/13 04:05:10;;;;;;;26.15;15.88;;;12.00;99.90;;;;;;5069728;28;20024;-56
2022/04/13 04:07:36;;;;;;;26.77;15.95;;;12.00;99.90;;;;;;5069480;28;20490;-56
2022/04/13 04:10:03;;;;;;;28.05;15.75;;;12.10;99.90;;;;;;5069455;28;20247;-56
2022/04/13 04:12:29;;;;;;;26.33;16.20;;;12.00;99.90;;;;;;5069647;28;20020;-56
2022/04/13 04:15:00;;;;;;;26.58;14.52;;;12.00;99.90;;;;;;5069809;28;20397;-56
2022/04/13 04:17:26;;;;;;;19.60;13.75;;;11.80;99.90;;;;;;5069883;28;20047;-57
2022/04/13 04:19:51;;;;;;;20.50;13.93;;;11.70;99.90;;;;;;5068489;28;20112;-57
2022/04/13 04:22:17;;;;;;;21.02;12.75;;;11.50;99.90;;;;;;5069646;28;20531;-57
2022/04/13 04:24:42;;;;;;;29.40;14.73;;;11.50;99.90;;;;;;5068232;28;20074;-57
2022/04/13 04:27:08;;;;;;;23.38;14.52;;;11.40;99.90;;;;;;5069532;28;20314;-57
2022/04/13 04:29:35;;;;;;;21.30;14.75;;;11.40;99.90;;;;;;5069271;28;20035;-57
2022/04/13 04:32:01;;;;;;;25.70;14.88;;;11.50;99.90;;;;;;5069432;28;20398;-57
2022/04/13 04:34:27;;;;;;;26.92;13.75;;;11.50;99.90;;;;;;5069639;28;20028;-57
2022/04/13 04:36:53;;;;;;;20.60;12.70;;;11.40;99.90;;;;;;5070244;28;20024;-57
2022/04/13 04:39:19;;;;;;;23.48;12.25;;;11.30;99.90;;;;;;5071030;28;20028;-57
2022/04/13 04:41:44;;;;;;;25.20;14.05;;;11.30;99.90;;;;;;5069772;28;20021;-57
2022/04/13 04:44:10;;;;;;;22.30;13.13;;;11.40;99.90;;;;;;5069646;28;20052;-57
2022/04/13 04:46:37;;;;;;;21.88;13.63;;;11.50;99.90;;;;;;5067704;28;20111;-57
2022/04/13 04:49:03;;;;;;;21.33;12.48;;;11.50;99.90;;;;;;5069298;28;20544;-57
2022/04/13 04:51:32;;;;;;;20.55;11.98;;;11.50;99.90;;;;;;5069052;28;20037;-56
2022/04/13 04:53:59;;;;;;;18.60;12.02;;;11.50;99.90;;;;;;5067948;28;20039;-56
2022/04/13 04:56:25;;;;;;;20.08;12.20;;;11.40;99.90;;;;;;5067865;28;20025;-56
2022/04/13 04:58:50;;;;;;;24.55;13.70;;;11.30;99.90;;;;;;5069150;28;20024;-58
2022/04/13 05:01:16;;;;;;;24.92;12.70;;;11.30;99.90;;;;;;5069396;28;20016;-56
2022/04/13 05:03:44;;;;;;;25.25;12.85;;;11.20;99.90;;;;;;5070866;28;20024;-56
2022/04/13 05:06:10;;;;;;;21.63;13.27;;;11.10;99.90;;;;;;5070911;28;20023;-56
2022/04/13 05:08:35;;;;;;;23.13;12.55;;;11.20;99.90;;;;;;5070004;28;20393;-56
2022/04/13 05:11:02;;;;;;;23.38;13.50;;;11.30;99.90;;;;;;5071347;28;20585;-56
2022/04/13 05:13:29;;;;;;;20.98;14.15;;;11.60;99.90;;;;;;5072802;28;20400;-56
2022/04/13 05:15:54;;;;;;;27.73;13.18;;;11.70;99.90;;;;;;5071478;28;20477;-56
2022/04/13 05:18:20;;;;;;;21.45;14.55;;;11.80;99.90;;;;;;5072472;28;20031;-57
2022/04/13 05:20:46;;;;;;;27.65;15.32;;;11.90;99.90;;;;;;5072730;28;20040;-57
2022/04/13 05:23:11;;;;;;;27.63;15.73;;;12.00;99.90;;;;;;5072465;28;20040;-57
2022/04/13 05:25:37;;;;;;;28.50;16.40;;;12.10;99.90;;;;;;5072329;28;20024;-57
2022/04/13 05:28:03;;;;;;;26.90;16.42;;;12.20;99.90;;;;;;5072342;28;20021;-57
2022/04/13 05:30:28;;;;;;;19.85;14.48;;;12.30;99.90;;;;;;5072354;28;20560;-57
2022/04/13 05:32:58;;;;;;;29.05;13.45;;;12.20;99.90;;;;;;5073787;28;20056;-57
2022/04/13 05:35:25;;;;;;;22.50;14.35;;;11.90;99.90;;;;;;5072956;28;20025;-57
2022/04/13 05:37:52;;;;;;;26.30;12.90;;;11.80;99.90;;;;;;5073389;28;20375;-57
2022/04/13 05:40:17;;;;;;;21.55;13.75;;;11.80;99.90;;;;;;5072260;28;20060;-57
2022/04/13 05:42:43;;;;;;;31.77;14.55;;;12.00;99.90;;;;;;5072368;28;20059;-57
2022/04/13 05:45:09;;;;;;;22.85;13.82;;;12.20;99.90;;;;;;5072883;28;20021;-57
2022/04/13 05:47:35;;;;;;;24.60;15.52;;;12.30;99.90;;;;;;5072109;28;20111;-57
2022/04/13 05:50:02;;;;;;;24.77;14.90;;;12.30;99.90;;;;;;5072127;28;20096;-57
2022/04/13 05:52:28;;;;;;;31.02;15.68;;;12.20;99.90;;;;;;5070996;28;20025;-57
2022/04/13 05:54:54;;;;;;;26.80;16.02;;;12.30;99.90;;;;;;5072160;28;20099;-57
2022/04/13 05:57:19;;;;;;;20.40;15.88;;;12.50;99.90;;;;;;5072071;28;20187;-57
2022/04/13 05:59:45;;;;;;;29.33;16.15;;;12.40;99.90;;;;;;5071607;28;20021;-57
2022/04/13 06:02:10;;;;;;;31.63;16.42;;;12.50;99.90;;;;;;5071993;28;20049;-57
2022/04/13 06:04:36;;;;;;;27.08;16.25;;;12.70;99.90;;;;;;5071695;28;20107;-57
2022/04/13 06:07:02;;;;;;;26.02;15.20;;;12.80;99.90;;;;;;5071835;28;20060;-57
2022/04/13 06:09:28;;;;;;;23.50;14.85;;;12.90;99.90;;;;;;5071582;28;20033;-57
2022/04/13 06:11:54;;;;;;;23.80;15.73;;;12.90;99.90;;;;;;5071614;28;20442;-58
2022/04/13 06:14:20;;;;;;;30.25;14.82;;;13.00;99.90;;;;;;5072072;28;20048;-58
2022/04/13 06:16:45;;;;;;;22.35;14.77;;;13.10;99.90;;;;;;5071224;28;20043;-57
2022/04/13 06:19:11;;;;;;;23.15;13.60;;;13.20;99.90;;;;;;5071486;28;20470;-57
2022/04/13 06:21:37;;;;;;;32.65;14.77;;;13.40;99.90;;;;;;5070159;28;20024;-57
2022/04/13 06:24:03;;;;;;;31.55;14.55;;;13.40;99.90;;;;;;5071524;28;20046;-57
2022/04/13 06:26:29;;;;;;;31.33;14.43;;;13.40;99.90;;;;;;5070133;28;20024;-57
2022/04/13 06:28:54;;;;;;;27.73;13.82;;;13.50;99.90;;;;;;5071174;28;20569;-57
2022/04/13 06:31:21;;;;;;;25.55;14.10;;;13.70;99.90;;;;;;5071076;28;20531;-57
2022/04/13 06:33:48;;;;;;;22.27;14.85;;;13.70;99.90;;;;;;5070029;28;20373;-57
2022/04/13 06:36:14;;;;;;;24.77;13.50;;;13.60;99.90;;;;;;5071071;28;20099;-57
2022/04/13 06:38:40;;;;;;;25.35;12.75;;;13.50;99.90;;;;;;5070857;28;20112;-57
2022/04/13 06:41:09;;;;;;;17.48;11.50;;;13.50;99.90;;;;;;5070971;28;20017;-57
2022/04/13 06:43:35;;;;;;;15.57;11.13;;;13.70;99.90;;;;;;5070112;28;20111;-57
2022/04/13 06:46:00;;;;;;;21.25;11.85;;;13.80;99.90;;;;;;5070741;28;20512;-57
2022/04/13 06:48:26;;;;;;;22.10;10.98;;;13.80;99.90;;;;;;5070785;28;20102;-57
2022/04/13 06:50:52;;;;;;;19.63;10.10;;;14.00;99.90;;;;;;5071001;28;20021;-57
2022/04/13 06:53:18;;;;;;;19.58;10.45;;;14.20;99.90;;;;;;5071064;28;20032;-57
2022/04/13 06:55:45;;;;;;;18.02;9.38;;;14.30;99.90;;;;;;5070726;28;20013;-57
2022/04/13 06:58:10;;;;;;;14.90;9.20;;;14.50;99.90;;;;;;5070650;28;20485;-61
2022/04/13 07:00:36;;;;;;;19.15;10.60;;;14.50;99.90;;;;;;5071393;28;20027;-57
2022/04/13 07:03:02;;;;;;;18.77;10.10;;;14.50;99.90;;;;;;5070836;28;20021;-57
2022/04/13 07:05:28;;;;;;;24.05;9.70;;;14.40;99.90;;;;;;5070371;28;20333;-57
2022/04/13 07:07:57;;;;;;;20.17;9.32;;;14.40;99.90;;;;;;5070673;28;20082;-57
2022/04/13 07:10:23;;;;;;;16.08;8.75;;;14.50;99.90;;;;;;5070608;28;20017;-57
2022/04/13 07:12:49;;;;;;;71.85;36.30;;;14.50;99.90;;;;;;5070640;28;20051;-57
2022/04/13 07:15:17;;;;;;;35.35;18.83;;;14.70;99.90;;;;;;5070769;28;20024;-58
2022/04/13 07:17:44;;;;;;;22.27;12.77;;;14.70;99.90;;;;;;5067385;28;20499;-57
2022/04/13 07:20:10;;;;;;;21.05;12.02;;;14.80;99.90;;;;;;5063464;28;20017;-57
2022/04/13 07:22:50;;;;;;;24.17;11.73;;;14.70;99.90;;;;;;5070553;28;20044;-57
2022/04/13 07:25:17;;;;;;;17.15;10.38;;;14.80;99.90;;;;;;5070187;28;20418;-57
2022/04/13 07:27:44;;;;;;;16.25;8.93;;;14.90;99.90;;;;;;5070005;28;20027;-57
2022/04/13 07:30:10;;;;;;;18.48;8.70;;;15.20;99.90;;;;;;5069924;28;20025;-58
2022/04/13 07:32:37;;;;;;;19.02;7.75;;;15.40;99.90;;;;;;5069968;28;20041;-57
2022/04/13 07:35:03;;;;;;;20.77;8.27;;;15.70;99.90;;;;;;5070221;28;20094;-58
2022/04/13 07:37:29;;;;;;;13.98;7.55;;;15.90;99.90;;;;;;5085318;28;20035;-57
2022/04/13 07:39:55;;;;;;;16.73;7.43;;;16.10;99.90;;;;;;5069827;28;20520;-57
2022/04/13 07:42:27;;;;;;;16.73;7.15;;;15.90;99.90;;;;;;5070051;28;20048;-57
2022/04/13 07:44:54;;;;;;;22.98;8.55;;;15.80;99.90;;;;;;5069981;28;20024;-57
2022/04/13 07:47:23;;;;;;;39.20;9.07;;;15.70;99.90;;;;;;5070179;28;20024;-57
2022/04/13 07:49:49;;;;;;;17.40;8.23;;;15.70;99.90;;;;;;5085507;28;20387;-57
2022/04/13 07:52:16;;;;;;;19.63;8.20;;;15.50;99.90;;;;;;5069959;28;20035;-57
2022/04/13 07:54:44;;;;;;;16.08;8.30;;;15.50;99.90;;;;;;5069909;28;20028;-57
2022/04/13 07:57:10;;;;;;;15.27;8.30;;;15.40;99.90;;;;;;5069494;28;20078;-57
2022/04/13 07:59:35;;;;;;;16.48;8.20;;;15.40;99.90;;;;;;5069887;28;20020;-57
2022/04/13 08:02:02;;;;;;;26.35;8.38;;;15.40;99.90;;;;;;5070030;28;20473;-57
2022/04/13 08:04:28;;;;;;;15.38;8.60;;;15.50;99.90;;;;;;5069513;28;20020;-57
2022/04/13 08:06:54;;;;;;;20.13;9.20;;;15.70;99.90;;;;;;5069510;28;20069;-57
2022/04/13 08:09:19;;;;;;;15.20;9.05;;;15.70;99.90;;;;;;5084994;28;20056;-58
2022/04/13 08:11:45;;;;;;;17.70;9.00;;;15.60;99.90;;;;;;5069417;28;20052;-57
2022/04/13 08:14:11;;;;;;;13.02;8.82;;;15.50;99.90;;;;;;5069613;28;20513;-57
2022/04/13 08:16:37;;;;;;;14.65;8.63;;;15.50;99.90;;;;;;5069523;28;20020;-57
2022/04/13 08:19:05;;;;;;;12.70;8.32;;;15.50;99.90;;;;;;5069713;28;20387;-57
2022/04/13 08:21:31;;;;;;;16.90;8.43;;;15.60;99.90;;;;;;5069302;28;20028;-57
2022/04/13 08:23:57;;;;;;;24.05;9.40;;;15.70;99.90;;;;;;5068167;28;20458;-57
2022/04/13 08:26:22;;;;;;;14.10;8.50;;;15.80;99.90;;;;;;5069337;28;20032;-57
2022/04/13 08:28:48;;;;;;;16.88;8.60;;;15.90;99.90;;;;;;5069443;28;20025;-57
2022/04/13 08:31:13;;;;;;;14.95;8.30;;;15.70;99.90;;;;;;5069659;28;20020;-57
2022/04/13 08:33:39;;;;;;;14.75;8.50;;;15.60;99.90;;;;;;5069663;28;20025;-57
2022/04/13 08:36:05;;;;;;;16.38;8.55;;;15.50;99.90;;;;;;5069596;28;20021;-57
2022/04/13 08:38:30;;;;;;;15.98;8.88;;;15.60;99.90;;;;;;5069558;28;20033;-57
2022/04/13 08:40:59;;;;;;;12.57;8.10;;;15.80;99.90;;;;;;5069175;28;20036;-57
2022/04/13 08:43:51;;;;;;;22.35;9.35;;;16.00;99.90;;;;;;5069438;28;20016;-57
2022/04/13 08:46:28;;;;;;;12.82;9.00;;;15.80;99.90;;;;;;5072279;28;20100;-57
2022/04/13 08:48:56;;;;;;;13.90;8.98;;;15.70;99.90;;;;;;5073102;28;20139;-57
2022/04/13 08:51:23;;;;;;;15.70;9.38;;;15.80;99.90;;;;;;5072949;28;20021;-57
2022/04/13 08:54:13;;;;;;;14.95;8.25;;;15.90;99.90;;;;;;5073132;28;20021;-57
2022/04/13 08:56:41;;;;;;;15.02;8.98;;;15.80;99.90;;;;;;5073048;28;20036;-57
2022/04/13 08:59:31;;;;;;;14.88;9.40;;;15.80;99.90;;;;;;5072896;28;20090;-57
2022/04/13 09:02:21;;;;;;;12.63;8.15;;;16.20;99.90;;;;;;5073071;28;20051;-58
2022/04/13 09:04:48;;;;;;;14.68;8.35;;;16.30;99.90;;;;;;5069900;28;20027;-57
2022/04/13 09:07:17;;;;;;;19.42;9.55;;;16.20;99.90;;;;;;5036905;28;20092;-57
2022/04/13 09:09:46;;;;;;;15.70;10.00;;;16.10;99.90;;;;;;5038988;28;20048;-57
2022/04/13 09:12:18;;;;;;;14.25;9.68;;;16.00;99.90;;;;;;5040897;28;20068;-57
2022/04/13 09:14:45;;;;;;;14.23;9.18;;;16.00;99.90;;;;;;5052711;28;20072;-57
2022/04/13 09:17:11;;;;;;;15.63;8.80;;;16.00;99.90;;;;;;5052353;28;20438;-57
2022/04/13 09:19:38;;;;;;;12.20;8.52;;;16.20;99.90;;;;;;5047810;28;20122;-57
2022/04/13 09:22:05;;;;;;;12.50;8.98;;;16.40;99.90;;;;;;5037840;28;20041;-57
2022/04/13 09:24:32;;;;;;;16.27;9.60;;;16.20;99.90;;;;;;5036467;28;20104;-57
2022/04/13 09:27:02;;;;;;;18.80;10.55;;;16.10;99.90;;;;;;5038452;28;20029;-57
2022/04/13 09:29:27;;;;;;;17.05;9.13;;;16.10;99.90;;;;;;5069534;28;20058;-57
2022/04/13 09:31:53;;;;;;;12.93;9.38;;;16.10;99.90;;;;;;5038066;28;20791;-57
2022/04/13 09:34:19;;;;;;;15.93;8.93;;;16.10;99.90;;;;;;5037025;28;20350;-58
2022/04/13 09:36:45;;;;;;;16.75;9.20;;;16.10;99.90;;;;;;5036800;28;20180;-58
2022/04/13 09:39:11;;;;;;;15.25;9.48;;;16.30;99.90;;;;;;5036570;28;20040;-58
2022/04/13 09:41:38;;;;;;;12.93;8.52;;;16.30;99.90;;;;;;5035019;28;20498;-58
2022/04/13 09:44:18;;;;;;;18.15;9.48;;;16.20;99.90;;;;;;5051871;28;20025;-57
2022/04/13 09:46:44;;;;;;;15.88;9.38;;;16.00;99.90;;;;;;5051865;28;20111;-57
2022/04/13 09:49:11;;;;;;;19.80;9.43;;;15.70;99.90;;;;;;5052705;28;20021;-57
2022/04/13 09:51:38;;;;;;;21.25;10.52;;;15.60;99.90;;;;;;5050540;28;20025;-57
2022/04/13 09:54:07;;;;;;;15.73;10.10;;;15.50;99.90;;;;;;5052067;28;20064;-57
2022/04/13 09:56:33;;;;;;;14.75;10.77;;;15.60;99.90;;;;;;5051594;28;20031;-58
2022/04/13 09:58:58;;;;;;;21.45;11.95;;;15.60;99.90;;;;;;5052244;28;20028;-58
2022/04/13 10:01:24;;;;;;;18.92;10.18;;;15.60;99.90;;;;;;5052037;28;20497;-57
2022/04/13 10:03:57;;;;;;;19.00;10.93;;;15.50;99.90;;;;;;5052262;28;20048;-57
2022/04/13 10:06:27;;;;;;;14.68;11.10;;;15.30;99.90;;;;;;5051621;28;20047;-57
2022/04/13 10:09:08;;;;;;;19.75;11.50;;;15.30;99.90;;;;;;5050288;28;20079;-57
2022/04/13 10:11:34;;;;;;;15.55;10.75;;;15.40;99.90;;;;;;5051579;28;20035;-58
2022/04/13 10:14:05;;;;;;;19.40;11.90;;;15.40;99.90;;;;;;5051846;28;20505;-58
2022/04/13 10:16:34;;;;;;;16.52;12.38;;;15.40;99.90;;;;;;5051932;28;20482;-58
2022/04/13 10:19:02;;;;;;;20.20;12.57;;;15.30;99.90;;;;;;5051455;28;20021;-58
2022/04/13 10:21:54;;;;;;;22.17;13.02;;;15.30;99.90;;;;;;5050411;28;20021;-58
2022/04/13 10:24:49;;;;;;;22.97;12.97;;;15.30;99.90;;;;;;5051384;28;20441;-58
2022/04/13 10:27:17;;;;;;;21.70;13.85;;;15.30;99.90;;;;;;5045644;28;20037;-58
2022/04/13 10:29:47;;;;;;;18.92;14.05;;;15.10;99.90;;;;;;5051615;28;20399;-58
2022/04/13 10:32:15;;;;;;;19.65;15.18;;;15.10;99.90;;;;;;5050556;28;20025;-57
2022/04/13 10:34:43;;;;;;;18.70;14.20;;;14.90;99.90;;;;;;5051573;28;20029;-57
2022/04/13 10:37:11;;;;;;;21.70;16.65;;;14.80;99.90;;;;;;5051093;28;20059;-58
2022/04/13 10:39:37;;;;;;;21.20;14.40;;;14.80;99.90;;;;;;5051491;28;20013;-57
2022/04/13 10:42:03;;;;;;;24.08;15.80;;;14.80;99.90;;;;;;5051317;28;20386;-57
2022/04/13 10:44:36;;;;;;;23.83;15.93;;;14.70;99.90;;;;;;5050877;28;20013;-57
2022/04/13 10:47:06;;;;;;;22.45;15.82;;;14.80;99.90;;;;;;5050945;28;20296;-57
2022/04/13 10:50:01;;;;;;;22.00;15.77;;;14.90;99.90;;;;;;5050649;28;20394;-58
2022/04/13 10:52:58;;;;;;;18.65;14.20;;;14.90;99.90;;;;;;5050927;28;20021;-59
2022/04/13 10:55:27;;;;;;;21.65;13.93;;;14.80;99.90;;;;;;5050930;28;20076;-59
2022/04/13 10:58:43;;;;;;;19.35;14.77;;;14.90;99.90;;;;;;5050747;28;20025;-59
2022/04/13 11:01:11;;;;;;;20.02;14.35;;;15.00;99.90;;;;;;5049540;28;20252;-58
2022/04/13 11:03:38;;;;;;;22.58;15.27;;;15.10;99.90;;;;;;5051095;28;20018;-58
2022/04/13 11:06:08;;;;;;;22.30;13.35;;;15.20;99.90;;;;;;5050518;28;20098;-59
2022/04/13 11:08:57;;;;;;;18.73;13.95;;;15.20;99.90;;;;;;5049823;28;20504;-59
2022/04/13 11:11:26;;;;;;;21.23;14.00;;;15.20;99.90;;;;;;5050843;28;20029;-59
2022/04/13 11:13:52;;;;;;;21.25;14.70;;;15.10;99.90;;;;;;5052018;28;20021;-59
2022/04/13 11:16:20;;;;;;;21.92;17.10;;;14.90;99.90;;;;;;5052423;28;20413;-59
2022/04/13 11:19:01;;;;;;;23.20;17.05;;;14.80;99.90;;;;;;5052552;28;20080;-59
2022/04/13 11:21:29;;;;;;;20.48;16.85;;;14.70;99.90;;;;;;5051158;28;20482;-59
2022/04/13 11:23:55;;;;;;;27.58;18.75;;;14.80;99.90;;;;;;5050735;28;20406;-58
2022/04/13 11:26:35;;;;;;;26.00;17.73;;;14.90;99.90;;;;;;5050476;28;20021;-58
2022/04/13 11:29:15;;;;;;;25.65;17.73;;;15.10;99.90;;;;;;5050531;28;20017;-59
2022/04/13 11:31:59;;;;;;;24.00;17.02;;;15.20;99.90;;;;;;5050638;28;20502;-59
2022/04/13 11:34:30;;;;;;;27.33;17.58;;;15.40;99.90;;;;;;5050493;28;20028;-59
2022/04/13 11:37:00;;;;;;;21.88;17.60;;;15.60;99.90;;;;;;5049974;28;20056;-59
2022/04/13 11:39:55;;;;;;;27.30;17.90;;;15.70;99.90;;;;;;5050255;28;20342;-59
2022/04/13 11:42:26;;;;;;;26.60;18.05;;;15.90;99.90;;;;;;5050105;28;20486;-59
2022/04/13 11:45:02;;;;;;;26.77;18.17;;;15.80;99.90;;;;;;5050324;28;20478;-58
2022/04/13 11:47:44;;;;;;;25.48;17.60;;;15.60;99.90;;;;;;5050329;28;20495;-58
2022/04/13 11:50:12;;;;;;;24.20;18.30;;;15.60;99.90;;;;;;5049874;28;20481;-58
2022/04/13 11:52:44;;;;;;;24.02;16.58;;;15.70;99.90;;;;;;5049839;28;20033;-58
2022/04/13 11:55:31;;;;;;;23.52;16.60;;;15.80;99.90;;;;;;5049820;28;20541;-58
2022/04/13 11:58:09;;;;;;;21.55;16.33;;;15.80;99.90;;;;;;5048551;28;20033;-58
2022/04/13 12:00:43;;;;;;;24.35;17.73;;;15.70;99.90;;;;;;5049873;28;20021;-58
2022/04/13 12:03:14;;;;;;;24.80;18.52;;;15.50;99.90;;;;;;5050216;28;20017;-58
2022/04/13 12:05:46;;;;;;;25.67;17.55;;;15.50;99.90;;;;;;5049766;28;20048;-58
2022/04/13 12:08:20;;;;;;;19.98;16.55;;;15.70;99.90;;;;;;5049745;28;20573;-58
2022/04/13 12:10:49;;;;;;;19.58;16.17;;;15.70;99.90;;;;;;5049872;28;20029;-58
2022/04/13 12:13:14;;;;;;;19.55;16.63;;;15.70;99.90;;;;;;5049809;28;20033;-58
2022/04/13 12:15:51;;;;;;;21.95;17.83;;;15.70;99.90;;;;;;5049880;28;20045;-58
2022/04/13 12:18:22;;;;;;;23.73;14.98;;;15.80;99.90;;;;;;5049460;28;20028;-58
2022/04/13 12:20:49;;;;;;;18.02;14.95;;;15.70;99.90;;;;;;5056040;28;20028;-58
2022/04/13 12:23:26;;;;;;;20.33;15.48;;;15.50;99.90;;;;;;5056381;28;20099;-57
2022/04/13 12:25:56;;;;;;;26.88;18.48;;;15.40;99.90;;;;;;5055531;28;20025;-58
2022/04/13 12:28:23;;;;;;;20.75;18.60;;;15.30;99.90;;;;;;5056199;28;20468;-58
2022/04/13 12:31:00;;;;;;;26.10;20.38;;;15.30;99.90;;;;;;5058053;28;20052;-58
2022/04/13 12:33:27;;;;;;;23.27;19.60;;;15.30;99.90;;;;;;5058505;28;20104;-58